createdAt,value
2023-05-10T00:02:00.562Z,2.31
2023-05-10T00:04:29.285Z,2.10
2023-05-10T00:06:58.170Z,2.20
2023-05-10T00:09:26.962Z,2.11
2023-05-10T00:11:55.808Z,2.14
2023-05-10T00:14:24.586Z,2.14
2023-05-10T00:16:53.669Z,1.95
2023-05-10T00:19:22.345Z,1.98
2023-05-10T00:21:51.155Z,1.88
2023-05-10T00:24:19.843Z,2.12
2023-05-10T00:26:49.355Z,1.58
2023-05-10T00:29:18.084Z,2.03
2023-05-10T00:31:46.887Z,1.60
2023-05-10T00:34:15.830Z,2.05
2023-05-10T00:36:44.523Z,2.08
2023-05-10T00:39:14.070Z,2.07
2023-05-10T00:41:42.892Z,2.35
2023-05-10T00:44:11.909Z,2.28
2023-05-10T00:46:40.963Z,1.88
2023-05-10T00:49:09.736Z,2.59
2023-05-10T00:51:38.876Z,2.34
2023-05-10T00:54:08.421Z,2.67
2023-05-10T00:56:38.319Z,2.72
2023-05-10T00:59:07.200Z,2.86
2023-05-10T01:01:37.739Z,2.96
2023-05-10T01:04:06.478Z,3.46
2023-05-10T01:06:35.297Z,4.98
2023-05-10T01:09:04.052Z,6.09
2023-05-10T01:11:32.778Z,7.23
2023-05-10T01:14:01.601Z,7.97
2023-05-10T01:16:34.669Z,8.91
2023-05-10T01:19:03.483Z,9.66
2023-05-10T01:22:12.092Z,10.45
2023-05-10T01:24:55.863Z,11.10
2023-05-10T01:28:02.721Z,11.33
2023-05-10T01:30:59.257Z,12.30
2023-05-10T01:33:45.185Z,11.82
2023-05-10T01:36:13.771Z,11.62
2023-05-10T01:38:53.723Z,10.98
2023-05-10T01:41:38.144Z,10.95
2023-05-10T01:44:29.633Z,10.46
2023-05-10T01:47:33.051Z,11.06
2023-05-10T01:50:06.158Z,11.36
2023-05-10T01:52:39.705Z,11.20
2023-05-10T01:55:13.306Z,10.47
2023-05-10T01:57:44.209Z,10.60
2023-05-10T02:00:14.327Z,10.65
2023-05-10T02:02:47.534Z,10.53
2023-05-10T02:05:18.284Z,10.43
2023-05-10T02:07:47.400Z,10.44
2023-05-10T02:10:17.979Z,10.64
2023-05-10T02:12:50.836Z,10.60
2023-05-10T02:15:26.482Z,10.71
2023-05-10T02:17:57.347Z,10.67
2023-05-10T02:20:28.291Z,10.68
2023-05-10T02:22:59.299Z,10.72
2023-05-10T02:25:29.153Z,10.49
2023-05-10T02:28:00.332Z,10.27
2023-05-10T02:30:30.613Z,10.22
2023-05-10T02:33:00.574Z,10.53
2023-05-10T02:35:30.114Z,10.47
2023-05-10T02:38:00.703Z,10.43
2023-05-10T02:40:31.852Z,10.42
2023-05-10T02:43:03.537Z,10.34
2023-05-10T02:45:34.516Z,10.70
2023-05-10T02:48:05.213Z,11.06
2023-05-10T02:50:35.934Z,11.22
2023-05-10T02:53:10.526Z,11.37
2023-05-10T02:55:42.517Z,11.40
2023-05-10T02:58:11.768Z,11.45
2023-05-10T03:00:40.533Z,10.82
2023-05-10T03:03:10.197Z,11.20
2023-05-10T03:05:38.996Z,11.10
2023-05-10T03:08:08.745Z,11.44
2023-05-10T03:11:00.695Z,11.75
2023-05-10T03:13:57.186Z,11.34
2023-05-10T03:16:45.108Z,11.23
2023-05-10T03:19:28.322Z,10.72
2023-05-10T03:22:01.330Z,11.08
2023-05-10T03:24:36.279Z,10.85
2023-05-10T03:27:06.998Z,11.39
2023-05-10T03:29:37.260Z,11.54
2023-05-10T03:32:06.538Z,11.54
2023-05-10T03:34:35.354Z,11.70
2023-05-10T03:37:04.726Z,12.00
2023-05-10T03:39:34.310Z,11.40
2023-05-10T03:42:04.575Z,11.38
2023-05-10T03:44:35.108Z,11.33
2023-05-10T03:47:04.609Z,11.48
2023-05-10T03:49:34.067Z,11.39
2023-05-10T03:52:03.594Z,11.61
2023-05-10T03:54:34.009Z,11.55
2023-05-10T03:57:04.595Z,12.09
2023-05-10T03:59:34.215Z,12.43
2023-05-10T04:02:03.236Z,12.48
2023-05-10T04:04:32.243Z,12.31
2023-05-10T04:07:01.097Z,12.39
2023-05-10T04:09:33.393Z,11.98
2023-05-10T04:12:04.057Z,12.46
2023-05-10T04:14:32.805Z,12.67
2023-05-10T04:17:02.136Z,13.10
2023-05-10T04:19:32.494Z,13.24
2023-05-10T04:22:01.504Z,13.78
2023-05-10T04:24:30.262Z,13.87
2023-05-10T04:27:01.738Z,14.25
2023-05-10T04:29:30.521Z,14.48
2023-05-10T04:31:59.541Z,14.37
2023-05-10T04:34:28.362Z,14.16
2023-05-10T04:36:57.124Z,13.66
2023-05-10T04:39:26.479Z,13.48
2023-05-10T04:41:55.459Z,13.07
2023-05-10T04:44:24.409Z,13.04
2023-05-10T04:46:53.014Z,13.22
2023-05-10T04:49:22.389Z,13.40
2023-05-10T04:51:53.510Z,13.12
2023-05-10T04:54:22.526Z,12.93
2023-05-10T04:56:51.210Z,13.16
2023-05-10T04:59:20.026Z,13.14
2023-05-10T05:01:48.869Z,13.85
2023-05-10T05:04:18.050Z,14.36
2023-05-10T05:06:46.842Z,14.18
2023-05-10T06:18:21.211Z,15.40
2023-05-10T06:20:52.206Z,15.14
2023-05-10T06:23:21.204Z,14.93
2023-05-10T06:25:50.506Z,15.34
2023-05-10T06:28:19.929Z,15.13
2023-05-10T06:30:49.584Z,15.19
2023-05-10T06:33:18.438Z,15.63
2023-05-10T06:35:47.193Z,15.60
2023-05-10T06:38:16.061Z,15.31
2023-05-10T06:40:45.324Z,15.52
2023-05-10T06:43:14.253Z,15.08
2023-05-10T06:45:43.225Z,15.15
2023-05-10T06:48:14.426Z,14.81
2023-05-10T06:50:43.155Z,14.60
2023-05-10T06:53:12.250Z,14.88
2023-05-10T06:55:41.444Z,15.60
2023-05-10T06:58:12.644Z,15.97
2023-05-10T07:00:42.386Z,15.52
2023-05-10T07:03:12.556Z,15.87
2023-05-10T07:05:41.499Z,16.30
2023-05-10T07:08:10.589Z,16.11
2023-05-10T07:10:39.496Z,16.50
2023-05-10T07:13:08.461Z,16.73
2023-05-10T07:15:37.505Z,16.94
2023-05-10T07:18:08.195Z,17.03
2023-05-10T07:20:37.176Z,17.32
2023-05-10T07:23:06.193Z,16.88
2023-05-10T07:25:34.957Z,17.11
2023-05-10T07:28:03.907Z,16.49
2023-05-10T07:30:32.850Z,16.20
2023-05-10T07:33:01.868Z,16.34
2023-05-10T07:35:30.851Z,16.58
2023-05-10T07:37:59.526Z,16.71
2023-05-10T07:40:28.834Z,17.10
2023-05-10T07:42:57.744Z,17.28
2023-05-10T07:45:26.511Z,17.32
2023-05-10T07:47:55.499Z,17.35
2023-05-10T07:50:24.330Z,17.22
2023-05-10T07:52:53.420Z,17.41
2023-05-10T07:55:25.216Z,17.47
2023-05-10T07:57:54.182Z,17.83
2023-05-10T08:00:23.144Z,18.00
2023-05-10T08:02:51.942Z,18.12
2023-05-10T08:05:20.914Z,18.00
2023-05-10T08:07:49.418Z,17.89
2023-05-10T08:10:18.770Z,17.79
2023-05-10T08:12:47.560Z,17.62
2023-05-10T08:15:16.807Z,17.54
2023-05-10T08:17:45.781Z,17.35
2023-05-10T08:20:18.468Z,17.41
2023-05-10T08:22:49.925Z,17.43
2023-05-10T08:25:20.169Z,17.16
2023-05-10T08:27:49.196Z,17.06
2023-05-10T08:30:17.881Z,17.21
2023-05-10T08:32:46.769Z,17.37
2023-05-10T08:35:18.803Z,17.56
2023-05-10T08:37:47.719Z,17.18
2023-05-10T08:40:17.569Z,17.46
2023-05-10T08:42:55.741Z,17.88
2023-05-10T08:45:26.721Z,18.15
2023-05-10T08:47:56.180Z,18.38
2023-05-10T08:50:26.655Z,18.62
2023-05-10T08:52:59.522Z,18.65
2023-05-10T08:55:28.402Z,18.73
2023-05-10T08:57:57.301Z,18.77
2023-05-10T09:00:26.634Z,18.60
2023-05-10T09:02:56.352Z,18.38
2023-05-10T09:05:25.377Z,18.49
2023-05-10T09:07:54.687Z,18.19
2023-05-10T09:10:23.678Z,18.65
2023-05-10T09:12:53.283Z,18.72
2023-05-10T09:15:22.329Z,18.39
2023-05-10T09:17:51.907Z,18.41
2023-05-10T09:20:21.043Z,18.20
2023-05-10T09:22:50.048Z,18.66
2023-05-10T09:25:19.511Z,18.77
2023-05-10T09:27:49.820Z,18.82
2023-05-10T09:30:29.626Z,18.23
2023-05-10T09:33:00.030Z,18.40
2023-05-10T09:35:34.524Z,18.34
2023-05-10T09:38:05.582Z,18.40
2023-05-10T09:40:34.513Z,18.31
2023-05-10T09:43:07.862Z,18.55
2023-05-10T09:45:38.902Z,18.34
2023-05-10T09:48:08.587Z,18.29
2023-05-10T09:50:37.727Z,18.11
2023-05-10T09:53:06.677Z,18.48
2023-05-10T09:55:38.366Z,18.56
2023-05-10T09:58:11.618Z,18.57
2023-05-10T10:00:53.242Z,18.53
2023-05-10T10:03:23.313Z,18.51
2023-05-10T10:05:52.863Z,18.62
2023-05-10T10:08:22.130Z,18.40
2023-05-10T10:10:53.336Z,18.22
2023-05-10T10:13:22.109Z,18.24
2023-05-10T10:15:52.809Z,18.08
2023-05-10T10:18:25.429Z,17.96
2023-05-10T10:20:56.371Z,18.07
2023-05-10T10:23:25.249Z,18.13
2023-05-10T10:25:57.065Z,18.16
2023-05-10T10:28:50.593Z,18.27
2023-05-10T10:31:48.007Z,18.20
2023-05-10T10:34:31.207Z,17.88
2023-05-10T10:37:05.676Z,17.89
2023-05-10T10:39:34.882Z,17.93
2023-05-10T10:42:05.267Z,17.70
2023-05-10T10:44:35.504Z,17.65
2023-05-10T10:47:24.767Z,17.61
2023-05-10T10:50:04.102Z,17.67
2023-05-10T10:52:34.632Z,17.75
2023-05-10T10:55:16.242Z,17.54
2023-05-10T10:57:50.779Z,17.98
2023-05-10T11:00:30.275Z,17.98
2023-05-10T11:03:10.389Z,17.87
2023-05-10T11:05:42.585Z,17.81
2023-05-10T11:08:12.727Z,17.78
2023-05-10T11:10:50.867Z,17.62
2023-05-10T11:13:51.387Z,17.59
2023-05-10T11:16:21.798Z,17.60
2023-05-10T11:19:09.893Z,17.43
2023-05-10T11:21:53.459Z,17.32
2023-05-10T11:24:29.963Z,17.42
2023-05-10T11:26:58.900Z,17.39
2023-05-10T11:29:28.439Z,17.21
2023-05-10T11:32:00.847Z,17.32
2023-05-10T11:34:31.978Z,17.38
2023-05-10T11:37:02.587Z,17.30
2023-05-10T11:39:35.166Z,17.36
2023-05-10T11:42:04.161Z,17.34
2023-05-10T11:44:34.779Z,17.20
2023-05-10T11:47:05.052Z,16.91
2023-05-10T11:49:34.785Z,17.03
2023-05-10T11:52:10.520Z,17.16
2023-05-10T11:54:40.190Z,17.12
2023-05-10T11:57:10.481Z,16.59
2023-05-10T11:59:41.742Z,17.14
2023-05-10T12:02:13.094Z,17.13
2023-05-10T12:04:42.858Z,17.09
2023-05-10T12:07:12.138Z,16.97
2023-05-10T12:09:46.819Z,17.12
2023-05-10T12:12:18.830Z,16.95
2023-05-10T12:14:52.761Z,16.77
2023-05-10T12:17:21.641Z,16.72
2023-05-10T12:19:50.602Z,16.72
2023-05-10T12:22:23.783Z,16.68
2023-05-10T12:24:53.119Z,16.67
2023-05-10T12:27:22.427Z,16.68
2023-05-10T12:29:52.902Z,16.59
2023-05-10T12:32:22.208Z,16.57
2023-05-10T12:34:57.094Z,16.53
2023-05-10T12:37:30.388Z,16.38
2023-05-10T12:39:59.610Z,16.39
2023-05-10T12:42:28.981Z,16.38
2023-05-10T12:44:59.340Z,16.34
2023-05-10T12:47:28.399Z,16.31
2023-05-10T12:49:58.478Z,16.28
2023-05-10T12:52:30.683Z,16.14
2023-05-10T12:55:01.925Z,16.23
2023-05-10T12:57:32.582Z,16.13
2023-05-10T13:00:01.867Z,16.09
2023-05-10T13:02:31.229Z,15.96
2023-05-10T13:05:02.001Z,15.98
2023-05-10T13:07:31.588Z,15.85
2023-05-10T13:10:03.379Z,15.90
2023-05-10T13:12:32.198Z,15.71
2023-05-10T13:15:01.420Z,15.81
2023-05-10T13:17:32.122Z,15.62
2023-05-10T13:20:02.695Z,15.62
2023-05-10T13:22:40.189Z,15.50
2023-05-10T13:25:10.579Z,15.50
2023-05-10T13:27:43.980Z,15.29
2023-05-10T13:30:13.533Z,15.37
2023-05-10T13:32:43.758Z,15.23
2023-05-10T13:35:13.740Z,15.21
2023-05-10T13:37:42.587Z,15.20
2023-05-10T13:40:12.200Z,15.21
2023-05-10T13:42:41.504Z,14.74
2023-05-10T13:45:11.003Z,14.71
2023-05-10T13:47:40.462Z,14.65
2023-05-10T13:50:09.847Z,14.95
2023-05-10T13:52:39.370Z,14.84
2023-05-10T13:55:10.787Z,14.74
2023-05-10T13:57:40.164Z,14.68
2023-05-10T14:00:12.706Z,14.74
2023-05-10T14:02:46.670Z,14.54
2023-05-10T14:05:21.010Z,14.55
2023-05-10T14:07:54.368Z,14.53
2023-05-10T14:10:23.371Z,14.49
2023-05-10T14:12:52.724Z,14.44
2023-05-10T14:15:21.965Z,14.40
2023-05-10T14:17:51.178Z,14.34
2023-05-10T14:20:20.146Z,14.24
2023-05-10T14:22:49.229Z,14.12
2023-05-10T14:25:18.360Z,13.93
2023-05-10T14:27:47.648Z,13.97
2023-05-10T14:30:17.478Z,14.04
2023-05-10T14:32:46.327Z,13.64
2023-05-10T14:35:18.415Z,13.90
2023-05-10T14:37:49.129Z,13.90
2023-05-10T14:40:19.128Z,13.83
2023-05-10T14:42:48.046Z,13.75
2023-05-10T14:45:17.434Z,13.65
2023-05-10T14:47:46.926Z,13.72
2023-05-10T14:50:31.812Z,13.62
2023-05-10T14:53:04.744Z,13.62
2023-05-10T14:55:34.674Z,13.51
2023-05-10T14:58:05.643Z,13.28
2023-05-10T15:00:34.573Z,13.38
2023-05-10T15:03:04.282Z,13.35
2023-05-10T15:05:33.797Z,13.33
2023-05-10T15:08:03.313Z,13.19
2023-05-10T15:10:34.303Z,13.27
2023-05-10T15:13:03.777Z,13.21
2023-05-10T15:15:33.436Z,13.11
2023-05-10T15:18:02.720Z,13.00
2023-05-10T15:20:32.197Z,12.88
2023-05-10T15:23:01.451Z,12.92
2023-05-10T15:25:30.669Z,12.81
2023-05-10T15:28:00.380Z,12.81
2023-05-10T15:30:29.439Z,12.68
2023-05-10T15:32:58.879Z,12.68
2023-05-10T15:35:29.080Z,12.67
2023-05-10T15:37:58.623Z,12.65
2023-05-10T15:40:28.367Z,12.64
2023-05-10T15:42:58.249Z,12.24
2023-05-10T15:45:27.286Z,12.58
2023-05-10T15:47:56.772Z,12.74
2023-05-10T15:50:26.433Z,12.65
2023-05-10T15:52:55.575Z,12.47
2023-05-10T15:55:25.176Z,12.50
2023-05-10T15:57:54.677Z,12.44
2023-05-10T16:00:24.334Z,12.43
2023-05-10T16:02:55.190Z,12.33
2023-05-10T16:05:25.212Z,12.28
2023-05-10T16:07:54.427Z,12.28
2023-05-10T16:10:23.959Z,12.31
2023-05-10T16:12:54.637Z,12.14
2023-05-10T16:15:24.450Z,12.18
2023-05-10T16:17:53.672Z,12.05
2023-05-10T16:20:22.833Z,12.11
2023-05-10T16:22:51.892Z,12.20
2023-05-10T16:25:20.928Z,12.04
2023-05-10T16:27:50.369Z,12.11
2023-05-10T16:30:21.245Z,11.94
2023-05-10T16:32:52.017Z,11.81
2023-05-10T16:35:21.644Z,11.96
2023-05-10T16:37:51.521Z,11.98
2023-05-10T16:40:20.877Z,12.03
2023-05-10T16:42:50.069Z,12.14
2023-05-10T16:45:19.300Z,12.23
2023-05-10T16:47:48.406Z,12.16
2023-05-10T16:50:18.583Z,12.24
2023-05-10T16:52:51.188Z,11.97
2023-05-10T16:55:20.950Z,12.44
2023-05-10T16:57:52.770Z,12.50
2023-05-10T17:00:21.836Z,12.49
2023-05-10T17:02:51.179Z,12.49
2023-05-10T17:05:20.484Z,12.57
2023-05-10T17:07:50.477Z,12.53
2023-05-10T17:10:19.776Z,12.50
2023-05-10T17:12:49.269Z,12.53
2023-05-10T17:15:20.012Z,12.19
2023-05-10T17:17:49.429Z,12.45
2023-05-10T17:20:18.633Z,12.63
2023-05-10T17:22:48.248Z,12.55
2023-05-10T17:25:17.558Z,12.58
2023-05-10T17:27:47.087Z,12.60
2023-05-10T17:30:16.485Z,12.37
2023-05-10T17:32:45.641Z,12.54
2023-05-10T17:35:15.015Z,12.48
2023-05-10T17:37:45.606Z,12.46
2023-05-10T17:40:14.847Z,12.43
2023-05-10T17:42:43.931Z,12.31
2023-05-10T17:45:13.703Z,12.37
2023-05-10T17:47:42.506Z,12.36
2023-05-10T17:50:11.843Z,12.32
2023-05-10T17:52:40.956Z,12.34
2023-05-10T17:55:10.249Z,11.90
2023-05-10T17:57:40.161Z,12.22
2023-05-10T18:00:09.977Z,12.22
2023-05-10T18:02:39.556Z,12.24
2023-05-10T18:05:09.450Z,12.19
2023-05-10T18:07:38.243Z,11.78
2023-05-10T18:10:07.985Z,11.98
2023-05-10T18:12:36.768Z,11.95
2023-05-10T18:15:06.246Z,12.08
2023-05-10T18:17:35.864Z,11.95
2023-05-10T18:20:04.762Z,11.98
2023-05-10T18:22:33.559Z,11.92
2023-05-10T18:25:02.948Z,11.86
2023-05-10T18:27:31.843Z,11.98
2023-05-10T18:30:00.701Z,11.96
2023-05-10T18:32:29.800Z,11.90
2023-05-10T18:34:59.239Z,11.63
2023-05-10T18:37:28.117Z,11.96
2023-05-10T18:39:57.065Z,11.92
2023-05-10T18:42:27.807Z,11.63
2023-05-10T18:44:56.608Z,11.90
2023-05-10T18:47:27.358Z,11.94
2023-05-10T18:49:56.447Z,11.74
2023-05-10T18:52:25.287Z,11.82
2023-05-10T18:54:54.301Z,11.68
2023-05-10T18:57:23.282Z,11.68
2023-05-10T18:59:51.973Z,11.70
2023-05-10T19:02:21.183Z,11.63
2023-05-10T19:04:50.189Z,11.01
2023-05-10T19:07:19.086Z,11.27
2023-05-10T19:09:50.473Z,11.25
2023-05-10T19:12:21.474Z,11.21
2023-05-10T19:14:50.485Z,11.06
2023-05-10T19:17:20.889Z,11.11
2023-05-10T19:19:51.091Z,11.12
2023-05-10T19:22:31.992Z,11.05
2023-05-10T19:25:11.069Z,10.95
2023-05-10T19:27:40.485Z,11.04
2023-05-10T19:30:09.982Z,10.93
2023-05-10T19:32:39.234Z,10.65
2023-05-10T19:35:08.608Z,10.58
2023-05-10T19:37:37.421Z,10.60
2023-05-10T19:40:06.740Z,10.27
2023-05-10T19:42:35.467Z,10.31
2023-05-10T19:45:04.672Z,10.24
2023-05-10T19:47:33.583Z,10.11
2023-05-10T19:50:02.591Z,9.98
2023-05-10T19:52:31.988Z,9.70
2023-05-10T19:55:00.672Z,9.78
2023-05-10T19:57:30.146Z,9.78
2023-05-10T19:59:59.167Z,9.63
2023-05-10T20:02:27.916Z,9.68
2023-05-10T20:04:57.374Z,9.60
2023-05-10T20:07:26.397Z,9.44
2023-05-10T20:09:55.220Z,9.35
2023-05-10T20:12:24.363Z,9.35
2023-05-10T20:14:53.265Z,9.31
2023-05-10T20:17:22.067Z,9.29
2023-05-10T20:19:51.086Z,9.42
2023-05-10T20:22:20.401Z,9.02
2023-05-10T20:24:49.352Z,9.34
2023-05-10T20:27:18.333Z,9.27
2023-05-10T20:29:47.385Z,9.33
2023-05-10T20:32:16.165Z,9.30
2023-05-10T20:34:45.063Z,9.29
2023-05-10T20:37:14.383Z,9.11
2023-05-10T20:39:43.044Z,9.01
2023-05-10T20:42:12.301Z,8.87
2023-05-10T20:44:41.045Z,8.77
2023-05-10T20:47:09.758Z,8.18
2023-05-10T20:49:38.693Z,8.34
2023-05-10T20:52:08.049Z,8.22
2023-05-10T20:54:36.961Z,8.10
2023-05-10T20:57:06.578Z,7.94
2023-05-10T20:59:35.488Z,7.95
2023-05-10T21:02:04.288Z,7.85
2023-05-10T21:04:33.142Z,7.64
2023-05-10T21:07:01.724Z,7.66
2023-05-10T21:09:30.690Z,7.60
2023-05-10T21:12:00.060Z,7.58
2023-05-10T21:14:29.104Z,7.57
2023-05-10T21:16:58.171Z,7.14
2023-05-10T21:19:27.071Z,7.51
2023-05-10T21:21:56.929Z,7.54
2023-05-10T21:24:25.704Z,7.47
2023-05-10T21:26:55.089Z,7.37
2023-05-10T21:29:23.952Z,7.28
2023-05-10T21:31:52.865Z,7.28
2023-05-10T21:34:25.718Z,7.23
2023-05-10T21:36:56.046Z,7.15
2023-05-10T21:39:25.035Z,7.00
2023-05-10T21:41:53.922Z,7.27
2023-05-10T21:44:23.141Z,7.11
2023-05-10T21:46:52.108Z,7.26
2023-05-10T21:49:21.236Z,7.24
2023-05-10T21:51:50.053Z,6.98
2023-05-10T21:54:18.928Z,7.02
2023-05-10T21:56:48.082Z,6.96
2023-05-10T21:59:17.055Z,6.63
2023-05-10T22:01:46.281Z,7.04
2023-05-10T22:04:15.700Z,6.94
2023-05-10T22:06:44.879Z,7.04
2023-05-10T22:09:13.518Z,6.88
2023-05-10T22:11:42.512Z,6.98
2023-05-10T22:14:11.381Z,6.87
2023-05-10T22:16:40.236Z,6.76
2023-05-10T22:19:08.929Z,6.77
2023-05-10T22:21:37.887Z,6.66
2023-05-10T22:24:06.742Z,6.76
2023-05-10T22:26:35.677Z,6.64
2023-05-10T22:29:05.102Z,6.73
2023-05-10T22:31:33.976Z,6.60
2023-05-10T22:34:03.201Z,6.34
2023-05-10T22:36:33.093Z,6.47
2023-05-10T22:39:02.184Z,6.43
2023-05-10T22:41:30.998Z,6.32
2023-05-10T22:44:00.161Z,6.55
2023-05-10T22:46:30.284Z,6.41
2023-05-10T22:49:00.757Z,6.38
2023-05-10T22:51:29.656Z,6.41
2023-05-10T22:53:58.226Z,6.38
2023-05-10T22:56:27.085Z,6.00
2023-05-10T22:58:56.570Z,6.34
2023-05-10T23:01:25.599Z,5.96
2023-05-10T23:03:54.691Z,6.40
2023-05-10T23:06:23.490Z,5.94
2023-05-10T23:08:52.905Z,6.31
2023-05-10T23:11:22.747Z,6.28
2023-05-10T23:13:52.690Z,6.25
2023-05-10T23:16:21.588Z,6.16
2023-05-10T23:18:50.530Z,6.31
2023-05-10T23:21:19.475Z,5.81
2023-05-10T23:23:48.719Z,6.10
2023-05-10T23:26:17.714Z,6.19
2023-05-10T23:28:46.422Z,6.13
2023-05-10T23:31:15.627Z,6.04
2023-05-10T23:33:44.359Z,6.08
2023-05-10T23:36:13.277Z,5.98
2023-05-10T23:38:42.160Z,6.10
2023-05-10T23:41:10.952Z,6.05
2023-05-10T23:43:39.894Z,5.90
2023-05-10T23:46:08.727Z,6.03
2023-05-10T23:48:37.866Z,5.90
2023-05-10T23:51:06.570Z,5.90
2023-05-10T23:53:35.444Z,5.91
2023-05-10T23:56:06.432Z,5.58
2023-05-10T23:58:35.299Z,5.52
